createdAt,value
2018-06-03T00:03:22.544Z,35.67
2018-06-03T00:05:50.678Z,36.37
2018-06-03T00:08:18.748Z,36.57
2018-06-03T00:10:47.784Z,36.43
2018-06-03T00:13:19.972Z,36.10
2018-06-03T00:15:56.718Z,38.00
2018-06-03T00:18:24.819Z,40.07
2018-06-03T00:21:11.109Z,44.00
2018-06-03T00:23:41.980Z,41.10
2018-06-03T00:26:14.719Z,44.23
2018-06-03T00:28:42.786Z,43.40
2018-06-03T00:31:15.224Z,39.53
2018-06-03T00:33:47.949Z,42.10
2018-06-03T00:36:28.946Z,43.30
2018-06-03T00:38:57.814Z,41.00
2018-06-03T00:41:25.907Z,47.07
2018-06-03T00:43:56.273Z,42.40
2018-06-03T00:46:24.343Z,45.03
2018-06-03T00:48:52.453Z,45.70
2018-06-03T00:51:20.557Z,46.63
2018-06-03T00:53:48.653Z,45.73
2018-06-03T00:56:31.539Z,46.37
2018-06-03T00:58:59.633Z,46.07
2018-06-03T01:01:28.708Z,42.60
2018-06-03T01:04:04.361Z,42.67
2018-06-03T01:06:32.463Z,41.90
2018-06-03T01:09:00.575Z,43.23
2018-06-03T01:11:28.671Z,44.00
2018-06-03T01:13:56.781Z,41.17
2018-06-03T01:16:32.767Z,39.60
2018-06-03T01:19:00.858Z,42.13
2018-06-03T01:24:28.519Z,40.20
2018-06-03T01:26:57.569Z,42.07
2018-06-03T01:29:26.453Z,42.93
2018-06-03T01:31:56.413Z,40.57
2018-06-03T01:34:25.416Z,37.93
2018-06-03T01:36:53.516Z,45.47
2018-06-03T01:39:21.650Z,41.70
2018-06-03T01:41:49.746Z,41.53
2018-06-03T01:44:18.623Z,43.03
2018-06-03T01:46:48.696Z,42.33
2018-06-03T01:49:16.815Z,46.30
2018-06-03T01:51:44.906Z,47.77
2018-06-03T01:54:13.681Z,52.37
2018-06-03T01:56:41.782Z,46.63
2018-06-03T01:59:10.092Z,49.13
2018-06-03T02:01:56.176Z,49.70
2018-06-03T02:04:26.183Z,45.83
2018-06-03T02:06:54.268Z,51.73
2018-06-03T02:09:27.084Z,45.07
2018-06-03T02:12:00.397Z,48.47
2018-06-03T02:14:29.562Z,46.40
2018-06-03T02:16:59.397Z,50.03
2018-06-03T02:19:32.287Z,45.77
2018-06-03T02:22:01.296Z,48.43
2018-06-03T02:24:29.406Z,49.07
2018-06-03T02:26:58.998Z,52.30
2018-06-03T02:29:28.011Z,50.80
2018-06-03T02:31:57.025Z,50.03
2018-06-03T02:34:26.110Z,50.10
2018-06-03T02:36:58.113Z,50.30
2018-06-03T02:39:27.208Z,51.17
2018-06-03T02:41:55.310Z,49.97
2018-06-03T02:44:24.404Z,54.50
2018-06-03T02:46:53.661Z,48.53
2018-06-03T02:49:22.739Z,48.23
2018-06-03T02:51:50.831Z,52.93
2018-06-03T02:54:18.932Z,49.63
2018-06-03T02:56:47.080Z,49.63
2018-06-03T02:59:16.177Z,45.60
2018-06-03T03:01:44.274Z,43.23
2018-06-03T03:04:17.573Z,46.97
2018-06-03T03:06:59.634Z,45.13
2018-06-03T03:09:32.790Z,48.40
2018-06-03T03:12:00.894Z,47.10
2018-06-03T03:14:28.999Z,46.27
2018-06-03T03:17:15.999Z,47.40
2018-06-03T03:19:45.007Z,46.03
2018-06-03T03:22:13.140Z,45.67
2018-06-03T03:24:41.255Z,41.73
2018-06-03T03:27:10.253Z,41.17
2018-06-03T03:29:39.140Z,40.07
2018-06-03T03:32:08.971Z,46.90
2018-06-03T03:34:40.657Z,44.47
2018-06-03T03:37:10.695Z,47.77
2018-06-03T03:39:47.181Z,45.93
2018-06-03T03:42:15.324Z,47.97
2018-06-03T03:44:44.207Z,48.87
2018-06-03T03:47:12.313Z,52.80
2018-06-03T03:49:40.417Z,49.23
2018-06-03T03:52:13.437Z,47.10
2018-06-03T03:54:42.472Z,44.67
2018-06-03T03:57:10.571Z,49.30
2018-06-03T03:59:39.437Z,52.50
2018-06-03T04:02:10.876Z,50.77
2018-06-03T04:04:39.887Z,45.90
2018-06-03T04:07:08.875Z,46.70
2018-06-03T04:09:40.445Z,48.10
2018-06-03T04:12:08.537Z,47.77
2018-06-03T04:14:36.640Z,46.30
2018-06-03T04:17:05.723Z,48.17
2018-06-03T04:19:34.727Z,47.50
2018-06-03T04:22:03.747Z,47.87
2018-06-03T04:24:33.502Z,49.83
2018-06-03T04:27:17.021Z,48.87
2018-06-03T04:29:49.092Z,54.00
2018-06-03T04:32:17.211Z,48.47
2018-06-03T04:34:47.526Z,45.47
2018-06-03T04:37:26.331Z,50.17
2018-06-03T04:39:56.966Z,46.40
2018-06-03T04:42:25.247Z,46.63
2018-06-03T04:44:53.454Z,49.50
2018-06-03T04:47:21.543Z,46.87
2018-06-03T04:49:49.653Z,44.77
2018-06-03T04:52:17.763Z,47.23
2018-06-03T04:54:49.055Z,42.77
2018-06-03T04:57:20.415Z,40.73
2018-06-03T04:59:57.381Z,47.63
2018-06-03T05:02:28.303Z,38.97
2018-06-03T05:04:56.691Z,46.93
2018-06-03T05:07:24.934Z,40.03
2018-06-03T05:09:53.842Z,45.90
2018-06-03T05:12:22.891Z,44.57
2018-06-03T05:14:53.941Z,38.50
2018-06-03T05:17:25.756Z,39.80
2018-06-03T05:19:54.624Z,42.00
2018-06-03T05:22:27.296Z,37.70
2018-06-03T05:24:56.035Z,38.30
2018-06-03T05:30:26.703Z,43.40
2018-06-03T05:32:54.815Z,44.17
2018-06-03T05:35:23.119Z,39.10
2018-06-03T05:37:52.033Z,40.90
2018-06-03T05:40:20.179Z,42.00
2018-06-03T05:42:49.046Z,39.10
2018-06-03T05:45:17.158Z,37.03
2018-06-03T05:47:45.466Z,38.97
2018-06-03T05:50:15.307Z,38.83
2018-06-03T05:52:43.420Z,37.23
2018-06-03T05:55:11.525Z,40.37
2018-06-03T05:57:39.659Z,40.57
2018-06-03T06:00:23.795Z,37.43
2018-06-03T06:02:55.163Z,31.27
2018-06-03T06:05:23.333Z,33.30
2018-06-03T06:07:51.434Z,36.67
2018-06-03T06:10:20.363Z,31.87
2018-06-03T06:12:48.462Z,35.80
2018-06-03T06:15:16.621Z,34.67
2018-06-03T06:17:45.535Z,32.33
2018-06-03T06:20:13.716Z,34.07
2018-06-03T06:22:41.763Z,32.27
2018-06-03T06:25:09.867Z,32.17
2018-06-03T06:27:37.962Z,27.40
2018-06-03T06:30:06.073Z,29.23
2018-06-03T06:32:38.751Z,28.43
2018-06-03T06:35:08.773Z,29.53
2018-06-03T06:37:36.860Z,27.43
2018-06-03T06:40:05.571Z,27.30
2018-06-03T06:42:35.584Z,27.17
2018-06-03T06:45:03.718Z,25.40
2018-06-03T06:47:31.813Z,28.10
2018-06-03T06:50:00.753Z,25.57
2018-06-03T06:52:28.816Z,28.33
2018-06-03T06:54:57.718Z,31.07
2018-06-03T06:57:25.855Z,27.80
2018-06-03T06:59:56.809Z,24.83
2018-06-03T07:02:26.732Z,24.17
2018-06-03T07:04:55.357Z,26.27
2018-06-03T07:07:27.079Z,26.23
2018-06-03T07:09:55.189Z,26.67
2018-06-03T07:12:23.296Z,27.17
2018-06-03T07:14:51.427Z,30.63
2018-06-03T07:17:19.540Z,29.30
2018-06-03T07:19:47.652Z,27.93
2018-06-03T07:22:16.720Z,28.73
2018-06-03T07:24:44.832Z,27.17
2018-06-03T07:27:14.964Z,27.53
2018-06-03T07:29:43.096Z,25.53
2018-06-03T07:32:11.977Z,28.27
2018-06-03T07:34:40.465Z,27.80
2018-06-03T07:37:08.560Z,27.13
2018-06-03T07:39:37.478Z,24.27
2018-06-03T07:42:06.348Z,22.00
2018-06-03T07:44:34.487Z,24.30
2018-06-03T07:47:02.639Z,23.70
2018-06-03T07:49:31.546Z,21.00
2018-06-03T07:52:00.419Z,24.10
2018-06-03T07:54:29.224Z,25.43
2018-06-03T07:56:57.313Z,24.37
2018-06-03T07:59:25.648Z,24.80
2018-06-03T08:01:53.757Z,22.30
2018-06-03T08:04:21.847Z,20.37
2018-06-03T08:06:49.958Z,24.60
2018-06-03T08:09:18.071Z,23.40
2018-06-03T08:11:46.993Z,24.80
2018-06-03T08:14:15.081Z,22.40
2018-06-03T08:16:43.639Z,23.60
2018-06-03T08:19:11.766Z,25.80
2018-06-03T08:21:39.896Z,24.83
2018-06-03T08:24:11.934Z,22.17
2018-06-03T08:26:40.244Z,20.77
2018-06-03T08:29:10.286Z,23.83
2018-06-03T08:31:38.388Z,20.30
2018-06-03T08:34:07.325Z,18.87
2018-06-03T08:36:35.429Z,20.30
2018-06-03T08:39:03.554Z,22.03
2018-06-03T08:41:32.429Z,20.90
2018-06-03T08:44:01.505Z,22.70
2018-06-03T08:46:29.620Z,21.70
2018-06-03T08:48:59.671Z,22.73
2018-06-03T08:51:27.809Z,23.00
2018-06-03T08:53:55.920Z,23.40
2018-06-03T08:56:24.045Z,23.80
2018-06-03T08:58:56.782Z,22.50
2018-06-03T09:01:25.805Z,20.73
2018-06-03T09:03:53.932Z,22.30
2018-06-03T09:06:28.491Z,21.63
2018-06-03T09:08:57.555Z,22.10
2018-06-03T09:11:25.683Z,21.37
2018-06-03T09:13:54.976Z,20.67
2018-06-03T09:16:23.091Z,22.00
2018-06-03T09:18:51.210Z,20.57
2018-06-03T09:21:21.411Z,20.37
2018-06-03T09:23:52.896Z,21.63
2018-06-03T09:26:28.465Z,20.63
2018-06-03T09:28:56.725Z,20.63
2018-06-03T09:31:24.870Z,24.13
2018-06-03T09:33:55.835Z,20.60
2018-06-03T09:36:24.869Z,21.33
2018-06-03T09:38:54.903Z,20.10
2018-06-03T09:41:24.060Z,21.80
2018-06-03T09:43:52.169Z,22.20
2018-06-03T09:47:25.113Z,18.70
2018-06-03T09:49:53.955Z,17.93
2018-06-03T09:52:22.800Z,16.83
2018-06-03T09:54:51.549Z,18.03
2018-06-03T09:57:22.212Z,19.87
2018-06-03T09:59:51.029Z,22.23
2018-06-03T10:02:19.831Z,18.43
2018-06-03T10:04:48.695Z,18.37
2018-06-03T10:07:17.517Z,20.23
2018-06-03T10:09:53.484Z,18.83
2018-06-03T10:12:22.327Z,17.47
2018-06-03T10:14:53.519Z,17.40
2018-06-03T10:17:22.445Z,15.17
2018-06-03T10:19:57.774Z,16.03
2018-06-03T10:22:27.662Z,16.17
2018-06-03T10:24:56.688Z,16.30
2018-06-03T10:27:25.495Z,14.70
2018-06-03T10:29:55.428Z,16.83
2018-06-03T10:32:24.249Z,15.17
2018-06-03T10:34:53.032Z,16.47
2018-06-03T10:37:22.018Z,16.70
2018-06-03T10:39:50.835Z,16.23
2018-06-03T10:42:20.756Z,13.90
2018-06-03T10:44:49.568Z,11.63
2018-06-03T10:47:18.592Z,13.10
2018-06-03T10:49:47.395Z,12.33
2018-06-03T10:52:16.183Z,13.27
2018-06-03T10:54:46.219Z,12.77
2018-06-03T10:57:15.217Z,14.47
2018-06-03T10:59:47.474Z,14.90
2018-06-03T11:02:17.223Z,14.60
2018-06-03T11:04:45.955Z,15.70
2018-06-03T11:07:15.202Z,15.13
2018-06-03T11:09:44.061Z,13.57
2018-06-03T11:12:12.973Z,15.73
2018-06-03T11:14:41.736Z,12.60
2018-06-03T11:17:25.947Z,14.43
2018-06-03T11:19:54.835Z,15.27
2018-06-03T11:22:23.713Z,14.90
2018-06-03T11:24:52.793Z,14.20
2018-06-03T11:27:26.796Z,13.27
2018-06-03T11:29:55.645Z,14.13
2018-06-03T11:32:26.671Z,11.97
2018-06-03T11:34:55.432Z,12.73
2018-06-03T11:37:24.305Z,13.77
2018-06-03T11:39:53.071Z,12.57
2018-06-03T11:42:21.913Z,12.00
2018-06-03T11:44:50.505Z,12.93
2018-06-03T11:47:19.336Z,12.17
2018-06-03T11:49:48.196Z,11.43
2018-06-03T11:52:21.603Z,12.13
2018-06-03T11:54:50.300Z,12.73
2018-06-03T11:57:19.127Z,13.50
2018-06-03T11:59:49.470Z,14.03
2018-06-03T12:02:18.918Z,14.07
2018-06-03T12:04:51.528Z,14.00
2018-06-03T12:07:27.400Z,15.30
2018-06-03T12:10:00.153Z,14.50
2018-06-03T12:12:29.051Z,13.90
2018-06-03T12:14:58.484Z,15.93
2018-06-03T12:17:28.352Z,15.73
2018-06-03T12:19:57.417Z,16.73
2018-06-03T12:22:26.305Z,14.70
2018-06-03T12:24:55.240Z,13.03
2018-06-03T12:27:24.065Z,15.20
2018-06-03T12:29:54.323Z,16.80
2018-06-03T12:32:24.230Z,17.90
2018-06-03T12:34:53.382Z,17.23
2018-06-03T12:37:24.536Z,16.73
2018-06-03T12:40:05.205Z,17.03
2018-06-03T12:42:34.087Z,16.17
2018-06-03T12:45:02.937Z,15.80
2018-06-03T12:47:31.796Z,16.03
2018-06-03T12:50:02.064Z,16.63
2018-06-03T12:52:30.972Z,15.70
2018-06-03T12:54:59.845Z,15.93
2018-06-03T12:57:28.621Z,14.70
2018-06-03T12:59:57.526Z,14.60
2018-06-03T13:02:26.235Z,14.57
2018-06-03T13:04:54.924Z,13.60
2018-06-03T13:07:23.958Z,14.10
2018-06-03T13:09:52.885Z,16.30
2018-06-03T13:12:25.867Z,14.17
2018-06-03T13:14:54.820Z,16.60
2018-06-03T13:17:23.799Z,15.63
2018-06-03T13:19:53.918Z,14.40
2018-06-03T13:22:23.093Z,14.77
2018-06-03T13:24:55.660Z,14.60
2018-06-03T13:27:25.170Z,15.70
2018-06-03T13:29:53.952Z,16.97
2018-06-03T13:32:22.897Z,14.90
2018-06-03T13:34:57.990Z,15.43
2018-06-03T13:37:26.939Z,14.20
2018-06-03T13:39:56.810Z,14.07
2018-06-03T13:42:25.672Z,15.80
2018-06-03T13:44:54.701Z,15.80
2018-06-03T13:47:23.451Z,17.50
2018-06-03T13:49:54.018Z,16.13
2018-06-03T13:52:24.017Z,15.17
2018-06-03T13:54:57.936Z,16.70
2018-06-03T13:57:26.879Z,15.27
2018-06-03T13:59:55.866Z,15.20
2018-06-03T14:02:30.864Z,13.70
2018-06-03T14:04:59.729Z,14.57
2018-06-03T14:07:33.628Z,15.13
2018-06-03T14:10:05.824Z,16.03
2018-06-03T14:12:38.689Z,14.83
2018-06-03T14:15:09.640Z,15.23
2018-06-03T14:17:38.488Z,14.80
2018-06-03T14:20:08.511Z,16.73
2018-06-03T14:22:37.699Z,15.00
2018-06-03T14:25:13.071Z,15.03
2018-06-03T14:27:42.905Z,15.37
2018-06-03T14:30:11.675Z,15.23
2018-06-03T14:32:40.857Z,16.77
2018-06-03T14:35:09.731Z,15.77
2018-06-03T14:37:38.613Z,14.97
2018-06-03T14:40:07.618Z,14.27
2018-06-03T14:42:37.016Z,15.53
2018-06-03T14:45:05.869Z,14.67
2018-06-03T14:47:40.867Z,15.77
2018-06-03T14:50:10.104Z,14.53
2018-06-03T14:52:43.776Z,14.90
2018-06-03T14:55:12.661Z,14.70
2018-06-03T14:57:42.749Z,14.37
2018-06-03T15:00:11.588Z,14.27
2018-06-03T15:02:40.653Z,14.87
2018-06-03T15:05:11.585Z,14.47
2018-06-03T15:07:40.470Z,13.83
2018-06-03T15:10:09.259Z,13.60
2018-06-03T15:12:40.624Z,13.67
2018-06-03T15:15:09.525Z,13.00
2018-06-03T15:17:38.383Z,14.07
2018-06-03T15:20:07.656Z,13.47
2018-06-03T15:22:36.692Z,15.10
2018-06-03T15:25:07.629Z,14.53
2018-06-03T15:27:36.739Z,14.33
2018-06-03T15:30:05.811Z,15.00
2018-06-03T15:32:36.953Z,14.77
2018-06-03T15:35:05.766Z,14.50
2018-06-03T15:37:34.575Z,15.07
2018-06-03T15:40:05.509Z,15.93
2018-06-03T15:42:34.369Z,15.40
2018-06-03T15:45:09.136Z,14.00
2018-06-03T15:47:38.136Z,14.63
2018-06-03T15:50:06.991Z,13.73
2018-06-03T15:52:35.824Z,14.23
2018-06-03T15:55:04.473Z,13.83
2018-06-03T15:57:33.220Z,12.77
2018-06-03T16:00:02.350Z,13.40
2018-06-03T16:02:31.211Z,13.13
2018-06-03T16:05:00.050Z,15.00
2018-06-03T16:07:28.860Z,14.40
2018-06-03T16:10:02.509Z,14.87
2018-06-03T16:12:31.433Z,13.83
2018-06-03T16:15:06.826Z,12.57
2018-06-03T16:17:36.650Z,14.00
2018-06-03T16:20:05.481Z,14.20
2018-06-03T16:22:34.388Z,14.30
2018-06-03T16:25:05.403Z,15.50
2018-06-03T16:27:38.243Z,14.60
2018-06-03T16:30:13.185Z,15.73
2018-06-03T16:32:44.189Z,14.57
2018-06-03T16:35:14.062Z,15.33
2018-06-03T16:37:46.995Z,16.20
2018-06-03T16:40:15.940Z,15.67
2018-06-03T16:42:45.004Z,14.63
2018-06-03T16:45:16.341Z,13.47
2018-06-03T16:47:46.939Z,13.17
2018-06-03T16:50:20.355Z,13.13
2018-06-03T16:53:00.229Z,10.57
2018-06-03T16:55:36.249Z,11.60
2018-06-03T16:58:05.157Z,11.37
2018-06-03T17:00:34.028Z,11.70
2018-06-03T17:03:03.824Z,11.83
2018-06-03T17:05:33.756Z,10.27
2018-06-03T17:08:03.537Z,12.40
2018-06-03T17:10:34.122Z,10.90
2018-06-03T17:13:07.263Z,10.80
2018-06-03T17:15:46.166Z,8.90
2018-06-03T17:18:15.033Z,9.37
2018-06-03T17:20:48.001Z,8.57
2018-06-03T17:23:16.905Z,9.17
2018-06-03T17:25:46.728Z,8.80
2018-06-03T17:28:20.051Z,8.17
2018-06-03T17:30:48.644Z,9.20
2018-06-03T17:33:24.737Z,8.63
2018-06-03T17:35:57.157Z,9.27
2018-06-03T17:38:27.184Z,8.07
2018-06-03T17:40:56.133Z,8.90
2018-06-03T17:43:24.749Z,8.60
2018-06-03T17:45:55.639Z,7.40
2018-06-03T17:48:24.460Z,7.50
2018-06-03T17:50:53.268Z,7.70
2018-06-03T17:53:22.071Z,7.40
2018-06-03T17:55:50.873Z,7.80
2018-06-03T17:58:20.707Z,8.50
2018-06-03T18:00:55.834Z,7.80
2018-06-03T18:03:24.653Z,6.73
2018-06-03T18:06:09.270Z,6.90
2018-06-03T18:08:40.437Z,6.73
2018-06-03T18:11:10.337Z,6.87
2018-06-03T18:13:39.231Z,7.50
2018-06-03T18:16:13.734Z,7.57
2018-06-03T18:18:44.692Z,8.30
2018-06-03T18:21:19.734Z,7.00
2018-06-03T18:23:48.486Z,6.43
2018-06-03T18:26:18.016Z,6.47
2018-06-03T18:28:47.876Z,7.47
2018-06-03T18:31:16.676Z,6.53
2018-06-03T18:33:45.956Z,6.67
2018-06-03T18:36:16.090Z,8.90
2018-06-03T18:38:46.227Z,6.90
2018-06-03T18:41:15.661Z,6.30
2018-06-03T18:43:44.456Z,8.10
2018-06-03T18:46:13.597Z,7.10
2018-06-03T18:48:44.649Z,6.87
2018-06-03T18:51:14.259Z,6.30
2018-06-03T18:53:43.213Z,6.17
2018-06-03T18:56:12.052Z,6.33
2018-06-03T18:58:44.734Z,6.63
2018-06-03T19:01:13.572Z,5.60
2018-06-03T19:03:42.336Z,7.10
2018-06-03T19:06:11.204Z,6.30
2018-06-03T19:08:42.076Z,7.07
2018-06-03T19:11:16.461Z,6.23
2018-06-03T19:13:45.449Z,7.50
2018-06-03T19:16:14.197Z,6.80
2018-06-03T19:18:43.052Z,6.10
2018-06-03T19:21:11.932Z,7.10
2018-06-03T19:23:42.969Z,6.70
2018-06-03T19:26:13.329Z,7.40
2018-06-03T19:29:05.111Z,6.20
2018-06-03T19:31:41.987Z,6.70
2018-06-03T19:34:10.781Z,7.63
2018-06-03T19:36:39.653Z,7.30
2018-06-03T19:39:08.610Z,7.17
2018-06-03T19:41:37.609Z,6.13
2018-06-03T19:44:06.396Z,6.83
2018-06-03T19:46:35.232Z,7.97
2018-06-03T19:49:10.453Z,5.73
2018-06-03T19:51:39.320Z,6.00
2018-06-03T19:54:08.314Z,4.93
2018-06-03T19:56:39.144Z,6.80
2018-06-03T19:59:09.783Z,6.90
2018-06-03T20:01:40.018Z,7.67
2018-06-03T20:04:10.275Z,5.90
2018-06-03T20:06:40.544Z,5.30
2018-06-03T20:09:10.340Z,6.23
2018-06-03T20:11:55.824Z,5.93
2018-06-03T20:14:24.648Z,6.07
2018-06-03T20:16:59.492Z,5.67
2018-06-03T20:19:28.281Z,6.37
2018-06-03T20:21:57.345Z,4.93
2018-06-03T20:24:28.707Z,4.63
2018-06-03T20:26:57.719Z,6.03
2018-06-03T20:29:27.771Z,5.17
2018-06-03T20:32:03.180Z,5.83
2018-06-03T20:34:35.807Z,7.90
2018-06-03T20:37:04.543Z,6.13
2018-06-03T20:39:33.129Z,6.00
2018-06-03T20:42:06.859Z,6.10
2018-06-03T20:44:35.631Z,6.77
2018-06-03T20:47:04.395Z,6.00
2018-06-03T20:49:33.222Z,7.53
2018-06-03T20:52:02.056Z,6.87
2018-06-03T20:54:30.846Z,20.63
2018-06-03T20:56:59.692Z,7.30
2018-06-03T20:59:28.538Z,6.17
2018-06-03T21:01:57.348Z,6.40
2018-06-03T21:04:27.188Z,7.27
2018-06-03T21:06:55.912Z,9.20
2018-06-03T21:09:24.754Z,7.10
2018-06-03T21:11:53.696Z,6.43
2018-06-03T21:14:22.487Z,6.10
2018-06-03T21:16:51.245Z,6.47
2018-06-03T21:19:21.075Z,6.47
2018-06-03T21:21:55.473Z,6.70
2018-06-03T21:24:26.280Z,7.40
2018-06-03T21:26:55.031Z,6.60
2018-06-03T21:29:28.375Z,7.40
2018-06-03T21:32:01.590Z,7.37
2018-06-03T21:34:30.394Z,6.97
2018-06-03T21:36:59.145Z,8.53
2018-06-03T21:39:28.011Z,7.70
2018-06-03T21:41:56.761Z,7.17
2018-06-03T21:44:25.739Z,7.20
2018-06-03T21:46:54.664Z,6.90
2018-06-03T21:49:23.539Z,7.40
2018-06-03T21:51:52.377Z,7.50
2018-06-03T21:54:21.260Z,7.17
2018-06-03T21:56:50.075Z,7.20
2018-06-03T21:59:18.924Z,7.40
2018-06-03T22:01:47.798Z,9.20
2018-06-03T22:04:16.593Z,7.63
2018-06-03T22:06:45.401Z,8.27
2018-06-03T22:09:20.869Z,7.43
2018-06-03T22:11:51.684Z,8.43
2018-06-03T22:14:26.120Z,8.17
2018-06-03T22:16:54.919Z,7.70
2018-06-03T22:19:23.718Z,7.37
2018-06-03T22:21:52.550Z,8.03
2018-06-03T22:24:27.824Z,8.70
2018-06-03T22:26:56.402Z,8.67
2018-06-03T22:29:24.868Z,8.93
2018-06-03T22:31:57.765Z,9.70
2018-06-03T22:34:27.038Z,9.63
2018-06-03T22:36:57.856Z,10.50
2018-06-03T22:39:27.138Z,10.57
2018-06-03T22:41:55.854Z,11.70
2018-06-03T22:44:30.072Z,11.30
2018-06-03T22:46:59.933Z,13.43
2018-06-03T22:49:28.691Z,12.20
2018-06-03T22:51:58.536Z,13.33
2018-06-03T22:54:27.307Z,14.50
2018-06-03T22:58:01.425Z,13.20
2018-06-03T23:00:35.271Z,15.50
2018-06-03T23:03:09.484Z,16.03
2018-06-03T23:05:54.564Z,15.80
2018-06-03T23:08:23.556Z,16.20
2018-06-03T23:10:52.412Z,16.43
2018-06-03T23:13:23.319Z,17.80
2018-06-03T23:15:53.163Z,16.97
2018-06-03T23:18:22.002Z,17.30
2018-06-03T23:20:50.766Z,17.33
2018-06-03T23:23:32.491Z,17.03
2018-06-03T23:26:04.560Z,17.07
2018-06-03T23:28:33.367Z,18.40
2018-06-03T23:31:14.123Z,17.30
2018-06-03T23:33:42.929Z,17.87
2018-06-03T23:36:11.781Z,18.43
2018-06-03T23:38:41.941Z,19.10
2018-06-03T23:41:10.687Z,19.60
2018-06-03T23:43:39.497Z,19.03
2018-06-03T23:46:08.304Z,19.60
2018-06-03T23:48:38.108Z,19.70
2018-06-03T23:51:06.860Z,19.30
2018-06-03T23:53:35.693Z,18.23
2018-06-03T23:56:06.431Z,20.17
2018-06-03T23:58:45.584Z,18.90
